Time;durP1;ratioP1;P1;durP2;ratioP2;P2;SDS_P1;SDS_P2;PMS_P1;PMS_P2;Temp;Humidity;BMP_temperature;BMP_pressure;BME280_temperature;BME280_humidity;BME280_pressure;Samples;Min_cycle;Max_cycle;Signal;HPM_P1;HPM_P2
2021/11/25 00:00:04;;;;;;;;;;;;;;;-0.18;83.68;96475.44;30001;982;1772;-64
2021/11/25 00:00:35;;;;;;;;;;;;;;;-0.19;83.73;96473.00;30001;982;1877;-64
2021/11/25 00:01:06;;;;;;;;;;;;;;;-0.19;83.82;96473.00;30001;982;1868;-63
2021/11/25 00:01:37;;;;;;;;;;;;;;;-0.20;84.32;96466.84;30001;982;1877;-64
2021/11/25 00:02:08;;;;;;;;;;;;;;;-0.22;84.26;96463.59;30001;982;1886;-65
2021/11/25 00:02:39;;;;;;;;;;;;;;;-0.22;84.04;96463.59;30001;982;1882;-65
2021/11/25 00:03:10;;;;;;;;;;;;;;;-0.22;84.56;96462.78;30001;983;1885;-65
2021/11/25 00:03:41;;;;;;;;;;;;;;;-0.23;84.73;96459.31;30001;983;1881;-63
2021/11/25 00:04:12;;;;;;;;;;;;;;;-0.24;84.65;96455.03;30001;983;1885;-64
2021/11/25 00:04:43;;;;;;;;;;;;;;;-0.23;84.56;96461.97;30001;983;1881;-56
2021/11/25 00:05:14;;;;;;;;;;;;;;;-0.23;84.63;96461.97;30001;983;1885;-63
2021/11/25 00:05:45;;;;;;;;;;;;;;;-0.24;84.77;96460.38;30001;983;1881;-64
2021/11/25 00:06:16;;;;;;;;;;;;;;;-0.24;84.68;96460.38;30001;983;1868;-64
2021/11/25 00:06:47;;;;;;;;;;;;;;;-0.25;84.49;96456.06;30001;983;1877;-64
2021/11/25 00:07:18;;;;;;;;;;;;;;;-0.25;84.53;96465.94;30001;983;1886;-64
2021/11/25 00:07:48;;;;;;;;;;;;;;;-0.24;84.56;96464.87;30001;982;1881;-65
2021/11/25 00:08:20;;;;;;;;;;;;;;;-0.24;84.90;96463.03;30001;982;1886;-64
2021/11/25 00:08:50;;;;;;;;;;;;;;;-0.23;84.70;96464.66;30001;982;1881;-64
2021/11/25 00:09:21;;;;;;;;;;;;;;;-0.23;84.83;96461.97;30001;982;1886;-63
2021/11/25 00:09:52;;;;;;;;;;;;;;;-0.22;84.86;96463.59;30001;982;1882;-64
2021/11/25 00:10:23;;;;;;;;;;;;;;;-0.22;84.99;96463.59;30001;982;1886;-63
2021/11/25 00:10:54;;;;;;;;;;;;;;;-0.21;84.93;96456.41;30001;983;1881;-64
2021/11/25 00:11:25;;;;;;;;;;;;;;;-0.22;84.96;96466.28;30001;983;1868;-65
2021/11/25 00:11:57;;;;;;;;;;;;;;;-0.21;85.09;96465.22;30001;983;1876;-63
2021/11/25 00:12:27;;;;;;;;;;;;;;;-0.21;85.27;96462.56;30001;983;1885;-63
2021/11/25 00:12:58;;;;;;;;;;;;;;;-0.20;85.33;96460.72;30001;983;1881;-63
2021/11/25 00:13:29;;;;;;;;;;;;;;;-0.20;85.66;96463.38;30001;983;1885;-64
2021/11/25 00:14:00;;;;;;;;;;;;;;;-0.21;85.48;96459.09;30001;983;1881;-64
2021/11/25 00:14:31;;;;;;;;;;;;;;;-0.21;85.53;96459.91;30001;983;1886;-64
2021/11/25 00:15:04;;;;;;;;;;;;;;;-0.21;85.31;96453.75;30001;982;1881;-63
2021/11/25 00:15:35;;;;;;;;;;;;;;;-0.21;85.20;96459.91;30001;982;1886;-63
2021/11/25 00:16:06;;;;;;;;;;;;;;;-0.20;85.44;96456.19;30001;982;1881;-64
2021/11/25 00:16:37;;;;;;;;;;;;;;;-0.21;85.37;96453.75;30001;957;1893;-65
2021/11/25 00:17:08;;;;;;;;;;;;;;;-0.19;85.33;96463.13;30001;982;1877;-64
2021/11/25 00:17:39;;;;;;;;;;;;;;;-0.20;85.14;96460.72;30001;982;1886;-64
2021/11/25 00:18:10;;;;;;;;;;;;;;;-0.23;85.21;96455.84;30001;982;1882;-63
2021/11/25 00:18:41;;;;;;;;;;;;;;;-0.26;85.49;96454.44;30001;983;1885;-64
2021/11/25 00:19:12;;;;;;;;;;;;;;;-0.26;85.37;96454.44;30001;983;1881;-64
2021/11/25 00:19:44;;;;;;;;;;;;;;;-0.26;85.60;96456.31;30001;983;1885;-65
2021/11/25 00:20:16;;;;;;;;;;;;;;;-0.25;85.41;96456.06;30001;983;1881;-64
2021/11/25 00:20:48;;;;;;;;;;;;;;;-0.24;85.38;96454.22;30001;983;1885;-64
2021/11/25 00:21:19;;;;;;;;;;;;;;;-0.24;85.51;96448.87;30001;983;1882;-64
2021/11/25 00:21:50;;;;;;;;;;;;;;;-0.23;85.45;96451.31;30001;983;1868;-63
2021/11/25 00:22:21;;;;;;;;;;;;;;;-0.21;85.31;96454.56;30002;983;1877;-55
2021/11/25 00:22:51;;;;;;;;;;;;;;;-0.21;85.54;96451.91;30002;982;1886;-63
2021/11/25 00:23:22;;;;;;;;;;;;;;;-0.21;85.52;96451.91;30002;982;1881;-63
2021/11/25 00:23:53;;;;;;;;;;;;;;;-0.21;85.51;96453.75;30002;982;1886;-63
2021/11/25 00:24:24;;;;;;;;;;;;;;;-0.21;85.61;96451.91;30002;982;1881;-63
2021/11/25 00:24:55;;;;;;;;;;;;;;;-0.22;85.50;96447.59;30002;982;1886;-64
2021/11/25 00:25:26;;;;;;;;;;;;;;;-0.23;85.05;96450.50;30002;983;1881;-65
2021/11/25 00:25:57;;;;;;;;;;;;;;;-0.25;85.07;96453.41;30002;983;1885;-63
2021/11/25 00:26:28;;;;;;;;;;;;;;;-0.25;85.27;96448.06;30002;983;1881;-65
2021/11/25 00:27:00;;;;;;;;;;;;;;;-0.24;85.01;96446.22;30002;983;1868;-64
2021/11/25 00:27:30;;;;;;;;;;;;;;;-0.25;85.29;96442.75;30002;983;1877;-65
2021/11/25 00:28:01;;;;;;;;;;;;;;;-0.24;85.25;96449.69;30002;983;1885;-65
2021/11/25 00:28:32;;;;;;;;;;;;;;;-0.24;85.08;96447.03;30002;983;1881;-56
2021/11/25 00:29:04;;;;;;;;;;;;;;;-0.24;85.19;96440.87;30002;983;1885;-63
2021/11/25 00:29:35;;;;;;;;;;;;;;;-0.22;84.88;96447.59;30002;983;1881;-64
2021/11/25 00:30:07;;;;;;;;;;;;;;;-0.22;85.14;96442.28;30002;982;1886;-64
2021/11/25 00:30:38;;;;;;;;;;;;;;;-0.21;84.97;96433.22;30002;982;1881;-63
2021/11/25 00:31:09;;;;;;;;;;;;;;;-0.20;85.07;96439.38;30002;982;1886;-64
2021/11/25 00:31:40;;;;;;;;;;;;;;;-0.20;84.85;96442.84;30002;982;1882;-64
2021/11/25 00:32:11;;;;;;;;;;;;;;;-0.19;85.08;96433.81;30002;982;1868;-63
2021/11/25 00:32:43;;;;;;;;;;;;;;;-0.18;84.66;96432.75;30002;983;1876;-64
2021/11/25 00:33:14;;;;;;;;;;;;;;;-0.18;84.76;96432.75;30002;969;1909;-64
2021/11/25 00:33:44;;;;;;;;;;;;;;;-0.18;84.62;96431.94;30002;983;1881;-63
2021/11/25 00:34:15;;;;;;;;;;;;;;;-0.18;84.55;96435.44;30002;983;1885;-64
2021/11/25 00:34:46;;;;;;;;;;;;;;;-0.18;84.76;96438.09;30002;983;1881;-64
2021/11/25 00:35:17;;;;;;;;;;;;;;;-0.17;84.69;96429.06;30002;983;1885;-64
2021/11/25 00:35:48;;;;;;;;;;;;;;;-0.16;84.43;96440.53;30002;983;1881;-64
2021/11/25 00:36:19;;;;;;;;;;;;;;;-0.17;84.50;96433.56;30002;983;1885;-64
2021/11/25 00:36:50;;;;;;;;;;;;;;;-0.17;84.48;96431.72;30002;983;1882;-63
2021/11/25 00:37:21;;;;;;;;;;;;;;;-0.15;84.64;96436.81;30002;983;1868;-63
2021/11/25 00:37:52;;;;;;;;;;;;;;;-0.16;84.46;96430.69;30002;982;1877;-63
2021/11/25 00:38:23;;;;;;;;;;;;;;;-0.17;84.28;96429.06;30002;982;1886;-63
2021/11/25 00:38:54;;;;;;;;;;;;;;;-0.16;84.51;96429.88;30002;982;1864;-64
2021/11/25 00:39:25;;;;;;;;;;;;;;;-0.18;84.55;96423.94;30002;982;1882;-64
2021/11/25 00:39:56;;;;;;;;;;;;;;;-0.19;84.65;96428.47;30002;982;1882;-65
2021/11/25 00:40:27;;;;;;;;;;;;;;;-0.20;84.62;96426.84;30002;983;1885;-63
2021/11/25 00:40:57;;;;;;;;;;;;;;;-0.20;84.47;96424.19;30002;983;1881;-64
2021/11/25 00:41:28;;;;;;;;;;;;;;;-0.19;84.74;96435.66;30002;983;1885;-65
2021/11/25 00:41:59;;;;;;;;;;;;;;;-0.19;84.44;96431.12;30002;983;1881;-64
2021/11/25 00:42:30;;;;;;;;;;;;;;;-0.19;84.65;96431.12;30002;983;1885;-64
2021/11/25 00:43:01;;;;;;;;;;;;;;;-0.19;84.60;96420.47;30002;983;1881;-64
2021/11/25 00:43:32;;;;;;;;;;;;;;;-0.18;84.60;96426.63;30002;983;1868;-64
2021/11/25 00:44:03;;;;;;;;;;;;;;;-0.17;84.66;96431.72;30002;983;1877;-64
2021/11/25 00:44:34;;;;;;;;;;;;;;;-0.16;84.74;96430.69;30002;983;1886;-65
2021/11/25 00:45:06;;;;;;;;;;;;;;;-0.15;84.58;96429.62;30002;982;1881;-65
2021/11/25 00:45:36;;;;;;;;;;;;;;;-0.13;84.73;96429.38;30002;982;1886;-63
2021/11/25 00:46:08;;;;;;;;;;;;;;;-0.13;84.54;96424.88;30002;982;1882;-65
2021/11/25 00:46:39;;;;;;;;;;;;;;;-0.12;84.25;96426.50;30002;982;1886;-63
2021/11/25 00:47:09;;;;;;;;;;;;;;;-0.10;84.53;96421.72;30002;982;1881;-64
2021/11/25 00:47:40;;;;;;;;;;;;;;;-0.11;84.31;96419.31;30002;983;1885;-65
2021/11/25 00:48:12;;;;;;;;;;;;;;;-0.09;84.37;96430.53;30002;983;1863;-64
2021/11/25 00:48:42;;;;;;;;;;;;;;;-0.09;84.09;96426.03;30002;986;1851;-65
2021/11/25 00:49:14;;;;;;;;;;;;;;;-0.09;84.12;96426.03;30002;983;1881;-65
2021/11/25 00:49:44;;;;;;;;;;;;;;;-0.12;84.10;96418.50;30002;983;1877;-64
2021/11/25 00:50:18;;;;;;;;;;;;;;;-0.11;84.31;96419.31;30002;983;1881;-63
2021/11/25 00:50:49;;;;;;;;;;;;;;;-0.12;84.29;96420.34;30002;983;1877;-63
2021/11/25 00:51:21;;;;;;;;;;;;;;;-0.14;84.17;96428.59;30002;983;1881;-64
2021/11/25 00:51:53;;;;;;;;;;;;;;;-0.15;84.36;96421.63;30002;983;1877;-64
2021/11/25 00:52:26;;;;;;;;;;;;;;;-0.16;84.13;96425.34;30002;983;1881;-66
2021/11/25 00:52:57;;;;;;;;;;;;;;;-0.16;84.33;96425.34;30002;982;1877;-64
2021/11/25 00:53:28;;;;;;;;;;;;;;;-0.18;84.49;96426.63;30002;982;1882;-65
2021/11/25 00:53:59;;;;;;;;;;;;;;;-0.19;84.37;96428.47;30002;982;1859;-65
2021/11/25 00:54:30;;;;;;;;;;;;;;;-0.21;84.63;96425.22;30002;982;1877;-64
2021/11/25 00:55:01;;;;;;;;;;;;;;;-0.24;84.63;96423.03;30002;982;1877;-64
2021/11/25 00:55:32;;;;;;;;;;;;;;;-0.25;84.47;96421.41;30002;983;1881;-65
2021/11/25 00:56:03;;;;;;;;;;;;;;;-0.25;84.43;96421.41;30002;983;1876;-65
2021/11/25 00:56:34;;;;;;;;;;;;;;;-0.25;84.48;96420.59;30002;983;1880;-65
2021/11/25 00:57:05;;;;;;;;;;;;;;;-0.25;84.63;96424.09;30002;983;1876;-64
2021/11/25 00:57:36;;;;;;;;;;;;;;;-0.24;84.64;96423.03;30002;983;1881;-65
2021/11/25 00:58:07;;;;;;;;;;;;;;;-0.24;84.78;96428.38;30002;983;1877;-56
2021/11/25 00:58:38;;;;;;;;;;;;;;;-0.22;84.60;96415.62;30002;983;1881;-65
2021/11/25 00:59:10;;;;;;;;;;;;;;;-0.21;84.71;96425.22;30002;983;1859;-64
2021/11/25 00:59:41;;;;;;;;;;;;;;;-0.19;84.79;96422.34;30002;982;1877;-64
2021/11/25 01:00:15;;;;;;;;;;;;;;;-0.19;85.12;96430.34;30002;982;1877;-62
2021/11/25 01:00:47;;;;;;;;;;;;;;;-0.18;85.32;96431.94;30002;982;1881;-64
2021/11/25 01:01:18;;;;;;;;;;;;;;;-0.17;85.18;96433.56;30002;982;1877;-65
2021/11/25 01:01:49;;;;;;;;;;;;;;;-0.15;85.10;96421.63;30002;982;1864;-64
2021/11/25 01:02:21;;;;;;;;;;;;;;;-0.15;85.16;96421.63;30002;982;1873;-65
2021/11/25 01:02:51;;;;;;;;;;;;;;;-0.16;84.93;96425.34;30002;983;1881;-63
2021/11/25 01:03:22;;;;;;;;;;;;;;;-0.15;84.97;96426.97;30002;983;1859;-64
2021/11/25 01:03:53;;;;;;;;;;;;;;;-0.15;85.07;96420.81;30002;983;1859;-64
2021/11/25 01:04:24;;;;;;;;;;;;;;;-0.16;85.08;96414.66;30002;983;1877;-64
2021/11/25 01:04:55;;;;;;;;;;;;;;;-0.16;84.95;96421.88;30002;986;1881;-64
2021/11/25 01:05:26;;;;;;;;;;;;;;;-0.16;85.00;96419.19;30002;983;1877;-65
2021/11/25 01:05:57;;;;;;;;;;;;;;;-0.17;85.25;96415.72;30002;983;1881;-64
2021/11/25 01:06:28;;;;;;;;;;;;;;;-0.17;85.06;96418.37;30002;983;1859;-64
2021/11/25 01:06:59;;;;;;;;;;;;;;;-0.19;85.36;96415.16;30002;982;1859;-63
2021/11/25 01:07:31;;;;;;;;;;;;;;;-0.19;85.47;96420.47;30002;982;1877;-63
2021/11/25 01:08:03;;;;;;;;;;;;;;;-0.18;85.43;96416.75;30002;982;1881;-63
2021/11/25 01:08:34;;;;;;;;;;;;;;;-0.17;85.29;96428.25;30002;982;1877;-55
2021/11/25 01:09:05;;;;;;;;;;;;;;;-0.17;85.23;96418.37;30002;982;1882;-64
2021/11/25 01:09:36;;;;;;;;;;;;;;;-0.18;85.10;96415.94;30002;978;1889;-65
2021/11/25 01:10:08;;;;;;;;;;;;;;;-0.18;84.94;96413.28;30002;982;1882;-55
2021/11/25 01:10:39;;;;;;;;;;;;;;;-0.19;84.99;96420.47;30002;980;1879;-64
2021/11/25 01:11:10;;;;;;;;;;;;;;;-0.19;84.90;96415.16;30002;983;1881;-65
2021/11/25 01:11:41;;;;;;;;;;;;;;;-0.17;84.85;96422.91;30002;983;1859;-63
2021/11/25 01:12:12;;;;;;;;;;;;;;;-0.17;84.96;96415.72;30002;983;1877;-63
2021/11/25 01:12:43;;;;;;;;;;;;;;;-0.17;85.12;96417.56;30002;983;1877;-63
2021/11/25 01:13:14;;;;;;;;;;;;;;;-0.16;85.14;96420.00;30002;983;1881;-65
2021/11/25 01:13:45;;;;;;;;;;;;;;;-0.16;85.09;96422.69;30001;983;1877;-63
2021/11/25 01:14:18;;;;;;;;;;;;;;;-0.17;85.23;96418.37;30001;983;1881;-63
2021/11/25 01:14:49;;;;;;;;;;;;;;;-0.18;84.98;96416.75;30001;982;1877;-63
2021/11/25 01:15:28;;;;;;;;;;;;;;;-0.18;85.23;96416.75;30002;982;1864;-63
2021/11/25 01:15:59;;;;;;;;;;;;;;;-0.17;84.94;96412.25;30001;982;1873;-64
2021/11/25 01:16:30;;;;;;;;;;;;;;;-0.17;85.06;96420.25;30001;982;1882;-63
2021/11/25 01:17:01;;;;;;;;;;;;;;;-0.16;85.40;96413.88;30001;982;1877;-64
2021/11/25 01:17:33;;;;;;;;;;;;;;;-0.17;85.58;96413.06;30001;982;1882;-56
2021/11/25 01:18:05;;;;;;;;;;;;;;;-0.17;85.46;96418.37;30001;984;1868;-63
2021/11/25 01:18:38;;;;;;;;;;;;;;;-0.19;85.50;96409.81;30001;983;1863;-65
2021/11/25 01:19:09;;;;;;;;;;;;;;;-0.18;85.31;96410.63;30001;983;1872;-63
2021/11/25 01:19:40;;;;;;;;;;;;;;;-0.18;85.31;96416.75;30001;983;1881;-64
2021/11/25 01:20:14;;;;;;;;;;;;;;;-0.18;85.44;96411.44;30001;983;1877;-64
2021/11/25 01:20:46;;;;;;;;;;;;;;;-0.17;85.44;96413.06;30001;983;1864;-64
2021/11/25 01:21:17;;;;;;;;;;;;;;;-0.16;85.23;96406.66;30001;983;1873;-63
2021/11/25 01:21:48;;;;;;;;;;;;;;;-0.15;85.39;96416.28;30001;983;1881;-62
2021/11/25 01:22:19;;;;;;;;;;;;;;;-0.16;85.19;96412.00;30001;982;1877;-63
2021/11/25 01:22:50;;;;;;;;;;;;;;;-0.14;85.34;96412.59;30001;982;1881;-64
2021/11/25 01:23:23;;;;;;;;;;;;;;;-0.13;85.02;96403.53;30001;982;1877;-64
2021/11/25 01:23:54;;;;;;;;;;;;;;;-0.11;85.03;96411.31;30001;982;1881;-64
2021/11/25 01:24:25;;;;;;;;;;;;;;;-0.13;84.67;96400.88;30001;982;1877;-64
2021/11/25 01:24:56;;;;;;;;;;;;;;;-0.12;84.74;96401.69;30002;983;1851;-64
2021/11/25 01:25:27;;;;;;;;;;;;;;;-0.11;84.58;96408.63;30001;983;1872;-63
2021/11/25 01:25:58;;;;;;;;;;;;;;;-0.11;84.61;96404.13;30001;983;1881;-64
2021/11/25 01:26:28;;;;;;;;;;;;;;;-0.11;84.36;96398.78;30001;983;1877;-64
2021/11/25 01:26:59;;;;;;;;;;;;;;;-0.09;84.47;96401.22;30001;983;1881;-63
2021/11/25 01:27:30;;;;;;;;;;;;;;;-0.10;84.02;96405.72;30001;986;1877;-63
2021/11/25 01:28:01;;;;;;;;;;;;;;;-0.11;84.18;96398.78;30001;983;1864;-63
2021/11/25 01:28:32;;;;;;;;;;;;;;;-0.10;84.33;96402.25;30001;975;1880;-64
2021/11/25 01:29:03;;;;;;;;;;;;;;;-0.11;84.40;96400.62;30001;983;1881;-64
2021/11/25 01:29:34;;;;;;;;;;;;;;;-0.13;84.48;96398.19;30001;982;1877;-63
2021/11/25 01:30:07;;;;;;;;;;;;;;;-0.14;84.41;96401.91;30001;982;1881;-63
2021/11/25 01:30:40;;;;;;;;;;;;;;;-0.16;84.66;96396.00;30001;982;1877;-63
2021/11/25 01:31:11;;;;;;;;;;;;;;;-0.15;84.56;96394.16;30001;982;1881;-65
2021/11/25 01:31:41;;;;;;;;;;;;;;;-0.15;84.78;96397.63;30001;982;1877;-63
2021/11/25 01:32:12;;;;;;;;;;;;;;;-0.12;84.84;96397.16;30001;983;1863;-64
2021/11/25 01:32:44;;;;;;;;;;;;;;;-0.11;84.64;96398.78;30001;983;1854;-65
2021/11/25 01:33:15;;;;;;;;;;;;;;;-0.11;84.62;96396.09;30001;983;1881;-63
2021/11/25 01:33:46;;;;;;;;;;;;;;;-0.11;84.59;96396.09;30001;983;1876;-63
2021/11/25 01:34:17;;;;;;;;;;;;;;;-0.11;84.50;96396.09;30001;983;1881;-64
2021/11/25 01:34:48;;;;;;;;;;;;;;;-0.10;84.53;96391.59;30001;983;1877;-64
2021/11/25 01:35:19;;;;;;;;;;;;;;;-0.11;84.47;96390.78;30001;983;1881;-62
2021/11/25 01:35:51;;;;;;;;;;;;;;;-0.12;84.56;96383.81;30001;983;1877;-65
2021/11/25 01:36:21;;;;;;;;;;;;;;;-0.13;84.75;96390.19;30001;983;1881;-64
2021/11/25 01:36:52;;;;;;;;;;;;;;;-0.13;84.58;96392.06;30001;983;1859;-64
2021/11/25 01:37:25;;;;;;;;;;;;;;;-0.15;84.84;96388.81;30001;982;1877;-65
2021/11/25 01:37:56;;;;;;;;;;;;;;;-0.15;84.56;96394.97;30001;982;1877;-65
2021/11/25 01:38:28;;;;;;;;;;;;;;;-0.16;84.66;96393.34;30001;974;1899;-63
2021/11/25 01:38:59;;;;;;;;;;;;;;;-0.16;84.92;96388.00;30001;982;1877;-65
2021/11/25 01:39:30;;;;;;;;;;;;;;;-0.16;84.85;96393.34;30001;982;1864;-65
2021/11/25 01:40:01;;;;;;;;;;;;;;;-0.16;84.89;96388.00;30001;983;1872;-64
2021/11/25 01:40:32;;;;;;;;;;;;;;;-0.17;84.93;96391.72;30001;983;1881;-63
2021/11/25 01:41:03;;;;;;;;;;;;;;;-0.16;84.99;96392.53;30001;986;1868;-64
2021/11/25 01:41:34;;;;;;;;;;;;;;;-0.16;85.20;96382.69;30001;983;1881;-65
2021/11/25 01:42:05;;;;;;;;;;;;;;;-0.14;85.00;96395.78;30001;986;1877;-64
2021/11/25 01:42:36;;;;;;;;;;;;;;;-0.13;84.99;96392.88;30001;983;1881;-64
2021/11/25 01:43:08;;;;;;;;;;;;;;;-0.11;85.10;96390.78;30001;983;1877;-66
2021/11/25 01:43:39;;;;;;;;;;;;;;;-0.10;85.01;96388.91;30001;983;1881;-65
2021/11/25 01:44:09;;;;;;;;;;;;;;;-0.09;84.96;96394.03;30001;983;1859;-64
2021/11/25 01:44:40;;;;;;;;;;;;;;;-0.09;84.93;96388.69;30001;982;1877;-64
2021/11/25 01:45:12;;;;;;;;;;;;;;;-0.08;84.89;96390.31;30001;982;1859;-65
2021/11/25 01:45:43;;;;;;;;;;;;;;;-0.08;85.21;96390.31;30001;967;1892;-66
2021/11/25 01:46:15;;;;;;;;;;;;;;;-0.08;85.11;96384.16;30001;982;1877;-63
2021/11/25 01:46:46;;;;;;;;;;;;;;;-0.07;85.07;96391.13;30001;982;1882;-63
2021/11/25 01:47:18;;;;;;;;;;;;;;;-0.08;84.91;96384.97;30001;983;1876;-64
2021/11/25 01:47:49;;;;;;;;;;;;;;;-0.08;84.92;96387.63;30001;983;1881;-65
2021/11/25 01:48:20;;;;;;;;;;;;;;;-0.10;84.76;96387.06;30001;983;1876;-56
2021/11/25 01:48:51;;;;;;;;;;;;;;;-0.10;84.58;96387.06;30001;964;1907;-65
2021/11/25 01:49:22;;;;;;;;;;;;;;;-0.09;84.47;96388.69;30001;983;1859;-64
2021/11/25 01:49:53;;;;;;;;;;;;;;;-0.09;84.70;96394.03;30001;983;1877;-63
2021/11/25 01:50:25;;;;;;;;;;;;;;;-0.08;84.54;96394.81;30001;983;1877;-64
2021/11/25 01:50:56;;;;;;;;;;;;;;;-0.08;84.45;96384.97;30001;983;1881;-63
2021/11/25 01:51:27;;;;;;;;;;;;;;;-0.06;84.16;96388.22;30001;983;1877;-64
2021/11/25 01:51:58;;;;;;;;;;;;;;;-0.01;83.87;96390.16;30001;986;1881;-64
2021/11/25 01:52:29;;;;;;;;;;;;;;;0.00;83.81;96391.78;30001;982;1877;-64
2021/11/25 01:53:00;;;;;;;;;;;;;;;0.01;83.46;96388.03;30001;982;1864;-65
2021/11/25 01:53:31;;;;;;;;;;;;;;;0.00;83.70;96383.78;30001;982;1873;-63
2021/11/25 01:54:02;;;;;;;;;;;;;;;0.00;83.63;96392.56;30001;982;1882;-64
2021/11/25 01:54:33;;;;;;;;;;;;;;;0.00;83.71;96384.56;30001;982;1877;-63
2021/11/25 01:55:04;;;;;;;;;;;;;;;-0.02;83.48;96384.03;30001;983;1881;-55
2021/11/25 01:55:35;;;;;;;;;;;;;;;-0.05;83.57;96384.50;30001;983;1855;-65
2021/11/25 01:56:07;;;;;;;;;;;;;;;-0.06;83.69;96379.41;30001;983;1881;-64
2021/11/25 01:56:39;;;;;;;;;;;;;;;-0.08;83.60;96384.16;30001;983;1876;-65
2021/11/25 01:57:10;;;;;;;;;;;;;;;-0.09;83.66;96383.34;30001;983;1768;-64
2021/11/25 01:57:40;;;;;;;;;;;;;;;-0.10;84.08;96383.59;30001;983;1872;-64
2021/11/25 01:58:11;;;;;;;;;;;;;;;-0.13;84.17;96379.53;30001;983;1881;-64
2021/11/25 01:58:42;;;;;;;;;;;;;;;-0.16;84.44;96377.34;30001;983;1877;-64
2021/11/25 01:59:13;;;;;;;;;;;;;;;-0.15;84.26;96376.28;30001;982;1881;-63
2021/11/25 01:59:44;;;;;;;;;;;;;;;-0.15;84.53;96375.47;30001;982;1877;-56
2021/11/25 02:00:27;;;;;;;;;;;;;;;-0.14;84.34;96377.09;30001;982;1881;-65
2021/11/25 02:00:59;;;;;;;;;;;;;;;-0.11;84.31;96382.78;30001;982;1877;-64
2021/11/25 02:01:34;;;;;;;;;;;;;;;-0.11;83.96;96374.78;30001;982;1882;-64
2021/11/25 02:02:06;;;;;;;;;;;;;;;-0.10;83.94;96367.59;30001;982;1877;-63
2021/11/25 02:02:37;;;;;;;;;;;;;;;-0.12;83.87;96375.81;30001;983;1863;-63
2021/11/25 02:03:08;;;;;;;;;;;;;;;-0.13;84.01;96371.53;30001;983;1855;-65
2021/11/25 02:03:39;;;;;;;;;;;;;;;-0.13;84.02;96376.88;30001;983;1868;-64
2021/11/25 02:04:10;;;;;;;;;;;;;;;-0.13;84.17;96376.06;30001;983;1877;-64
2021/11/25 02:04:41;;;;;;;;;;;;;;;-0.13;84.00;96371.53;30001;983;1885;-66
2021/11/25 02:05:12;;;;;;;;;;;;;;;-0.14;84.00;96375.25;30001;983;1881;-64
2021/11/25 02:05:44;;;;;;;;;;;;;;;-0.13;84.10;96382.22;30001;983;1886;-64
2021/11/25 02:06:17;;;;;;;;;;;;;;;-0.13;84.20;96376.88;30001;983;1881;-64
2021/11/25 02:06:48;;;;;;;;;;;;;;;-0.11;84.07;96373.97;30001;982;1886;-63
2021/11/25 02:07:21;;;;;;;;;;;;;;;-0.13;84.24;96371.53;30001;982;1881;-65
2021/11/25 02:07:52;;;;;;;;;;;;;;;-0.12;84.30;96369.69;30001;965;1885;-64
2021/11/25 02:08:23;;;;;;;;;;;;;;;-0.13;84.41;96370.72;30001;982;1877;-64
2021/11/25 02:08:54;;;;;;;;;;;;;;;-0.13;84.19;96368.06;30001;982;1886;-63
2021/11/25 02:09:25;;;;;;;;;;;;;;;-0.14;84.18;96374.44;30001;982;1882;-64
2021/11/25 02:09:56;;;;;;;;;;;;;;;-0.16;84.28;96372.00;30001;983;1868;-56
2021/11/25 02:10:27;;;;;;;;;;;;;;;-0.17;84.62;96372.25;30001;983;1876;-65
2021/11/25 02:10:59;;;;;;;;;;;;;;;-0.17;84.73;96370.38;30001;983;1759;-63
2021/11/25 02:11:30;;;;;;;;;;;;;;;-0.19;84.69;96367.16;30001;983;1877;-64
2021/11/25 02:12:01;;;;;;;;;;;;;;;-0.19;84.88;96375.16;30001;983;1885;-64
2021/11/25 02:12:32;;;;;;;;;;;;;;;-0.21;84.80;96369.25;30001;983;1881;-64
2021/11/25 02:13:03;;;;;;;;;;;;;;;-0.21;84.73;96363.91;30001;983;1885;-56
2021/11/25 02:13:34;;;;;;;;;;;;;;;-0.20;84.72;96365.53;30001;983;1881;-64
2021/11/25 02:14:05;;;;;;;;;;;;;;;-0.18;84.92;96371.44;30001;982;1886;-65
2021/11/25 02:14:38;;;;;;;;;;;;;;;-0.17;84.58;96359.72;30001;982;1864;-64
2021/11/25 02:15:10;;;;;;;;;;;;;;;-0.16;84.54;96363.19;30001;982;1881;-64
2021/11/25 02:15:42;;;;;;;;;;;;;;;-0.17;84.79;96365.06;30001;982;1882;-56
2021/11/25 02:16:13;;;;;;;;;;;;;;;-0.17;84.53;96362.38;30001;982;1886;-64
2021/11/25 02:16:45;;;;;;;;;;;;;;;-0.17;84.83;96359.72;30001;982;1882;-63
2021/11/25 02:17:16;;;;;;;;;;;;;;;-0.16;85.11;96358.69;30001;982;1886;-64
2021/11/25 02:17:47;;;;;;;;;;;;;;;-0.13;84.58;96349.41;30001;983;1880;-65
2021/11/25 02:18:19;;;;;;;;;;;;;;;-0.11;84.56;96353.44;30001;983;1885;-64
2021/11/25 02:18:50;;;;;;;;;;;;;;;-0.10;84.32;96348.91;30001;983;1881;-65
2021/11/25 02:19:22;;;;;;;;;;;;;;;-0.09;84.38;96350.53;30001;983;1885;-64
2021/11/25 02:19:53;;;;;;;;;;;;;;;-0.10;83.97;96352.41;30001;983;1863;-64
2021/11/25 02:20:25;;;;;;;;;;;;;;;-0.11;84.25;96348.09;30001;983;1881;-64
2021/11/25 02:20:57;;;;;;;;;;;;;;;-0.12;83.92;96351.00;30001;983;1864;-54
2021/11/25 02:21:29;;;;;;;;;;;;;;;-0.13;84.16;96350.22;30001;983;1881;-64
2021/11/25 02:21:59;;;;;;;;;;;;;;;-0.15;84.61;96351.50;30001;982;1881;-65
2021/11/25 02:22:31;;;;;;;;;;;;;;;-0.17;84.55;96343.72;30001;982;1886;-64
2021/11/25 02:23:01;;;;;;;;;;;;;;;-0.18;84.88;96347.44;30001;982;1881;-62
2021/11/25 02:23:32;;;;;;;;;;;;;;;-0.17;84.86;96345.59;30001;982;1886;-63
2021/11/25 02:24:04;;;;;;;;;;;;;;;-0.17;84.78;96351.72;30001;982;1881;-64
2021/11/25 02:24:35;;;;;;;;;;;;;;;-0.17;84.54;96343.72;30001;982;1886;-63
2021/11/25 02:25:07;;;;;;;;;;;;;;;-0.17;84.41;96343.72;30001;983;1863;-64
2021/11/25 02:25:39;;;;;;;;;;;;;;;-0.18;84.75;96342.09;30001;983;1881;-63
2021/11/25 02:26:10;;;;;;;;;;;;;;;-0.17;84.41;96346.38;30001;983;1881;-64
2021/11/25 02:26:41;;;;;;;;;;;;;;;-0.19;84.58;96345.81;30001;983;1885;-56
2021/11/25 02:27:11;;;;;;;;;;;;;;;-0.17;84.64;96343.72;30001;983;1881;-64
2021/11/25 02:27:44;;;;;;;;;;;;;;;-0.18;84.54;96347.44;30001;983;1885;-64
2021/11/25 02:28:25;;;;;;;;;;;;;;;-0.20;84.93;96338.06;30001;983;1880;-63
2021/11/25 02:28:55;;;;;;;;;;;;;;;-0.20;84.63;96352.19;30001;983;1868;-62
2021/11/25 02:29:27;;;;;;;;;;;;;;;-0.21;85.14;96347.91;30001;982;1877;-64
2021/11/25 02:29:57;;;;;;;;;;;;;;;-0.21;85.34;96345.25;30001;982;1886;-64
2021/11/25 02:30:29;;;;;;;;;;;;;;;-0.21;85.33;96347.09;30001;982;1881;-63
2021/11/25 02:31:00;;;;;;;;;;;;;;;-0.20;85.39;96352.19;30001;982;1886;-64
2021/11/25 02:31:31;;;;;;;;;;;;;;;-0.21;85.31;96350.56;30001;982;1881;-64
2021/11/25 02:32:02;;;;;;;;;;;;;;;-0.19;85.24;96351.16;30001;983;1885;-63
2021/11/25 02:32:34;;;;;;;;;;;;;;;-0.18;85.06;96342.09;30001;983;1881;-65
2021/11/25 02:33:05;;;;;;;;;;;;;;;-0.14;85.08;96348.59;30001;983;1885;-64
2021/11/25 02:33:41;;;;;;;;;;;;;;;-0.10;84.97;96348.91;30001;983;1863;-63
2021/11/25 02:34:12;;;;;;;;;;;;;;;-0.09;84.95;96345.22;30001;983;1881;-63
2021/11/25 02:34:42;;;;;;;;;;;;;;;-0.09;84.76;96343.34;30001;983;1863;-65
2021/11/25 02:35:18;;;;;;;;;;;;;;;-0.08;84.59;96347.63;30001;983;1864;-65
2021/11/25 02:35:49;;;;;;;;;;;;;;;-0.10;84.84;96344.41;30001;983;1882;-64
2021/11/25 02:36:20;;;;;;;;;;;;;;;-0.09;84.78;96346.00;30001;983;1886;-65
2021/11/25 02:36:51;;;;;;;;;;;;;;;-0.10;84.82;96348.91;30001;982;1881;-65
2021/11/25 02:37:21;;;;;;;;;;;;;;;-0.10;84.61;96344.41;30001;982;1886;-64
2021/11/25 02:37:54;;;;;;;;;;;;;;;-0.10;84.71;96344.41;30001;982;1881;-64
2021/11/25 02:38:25;;;;;;;;;;;;;;;-0.08;84.61;96339.62;30001;982;1886;-65
2021/11/25 02:38:55;;;;;;;;;;;;;;;-0.07;84.69;96343.91;30001;982;1881;-66
2021/11/25 02:39:27;;;;;;;;;;;;;;;-0.07;84.77;96343.91;30001;983;1885;-65
2021/11/25 02:39:57;;;;;;;;;;;;;;;-0.07;84.83;96343.91;30001;983;1881;-64
2021/11/25 02:40:30;;;;;;;;;;;;;;;-0.08;84.64;96339.62;30001;983;1868;-64
2021/11/25 02:41:01;;;;;;;;;;;;;;;-0.08;84.58;96342.31;30001;983;1877;-64
2021/11/25 02:41:32;;;;;;;;;;;;;;;-0.08;84.88;96341.50;30001;983;1885;-63
2021/11/25 02:42:03;;;;;;;;;;;;;;;-0.10;84.60;96339.06;30001;983;1881;-65
2021/11/25 02:42:34;;;;;;;;;;;;;;;-0.11;84.87;96342.78;30001;983;1885;-64
2021/11/25 02:43:07;;;;;;;;;;;;;;;-0.12;84.86;96341.16;30001;971;1902;-63
2021/11/25 02:43:38;;;;;;;;;;;;;;;-0.11;84.86;96342.78;30001;983;1868;-64
2021/11/25 02:44:09;;;;;;;;;;;;;;;-0.11;84.82;96348.09;30001;983;1877;-65
2021/11/25 02:44:41;;;;;;;;;;;;;;;-0.10;84.86;96340.91;30001;982;1886;-64
2021/11/25 02:45:11;;;;;;;;;;;;;;;-0.11;85.10;96341.97;30001;982;1881;-64
2021/11/25 02:45:53;;;;;;;;;;;;;;;-0.13;85.00;96342.19;30001;982;1886;-63
2021/11/25 02:46:24;;;;;;;;;;;;;;;-0.13;85.00;96342.19;30001;982;1881;-66
2021/11/25 02:47:00;;;;;;;;;;;;;;;-0.12;84.97;96335.81;30001;983;1885;-66
2021/11/25 02:47:30;;;;;;;;;;;;;;;-0.13;84.92;96341.41;30001;986;1872;-61